sensor_id;sensor_type;location;lat;lon;timestamp;P1;durP1;ratioP1;P2;durP2;ratioP2
47958;SDS011;33718;50.910;-1.514;2023-10-08T00:00:53;6.68;;;3.28;;
47958;SDS011;33718;50.910;-1.514;2023-10-08T00:03:07;9.93;;;4.07;;
47958;SDS011;33718;50.910;-1.514;2023-10-08T00:05:19;11.05;;;3.40;;
47958;SDS011;33718;50.910;-1.514;2023-10-08T00:07:31;11.57;;;4.18;;
47958;SDS011;33718;50.910;-1.514;2023-10-08T00:09:35;6.40;;;3.47;;
47958;SDS011;33718;50.910;-1.514;2023-10-08T00:11:44;6.50;;;3.92;;
47958;SDS011;33718;50.910;-1.514;2023-10-08T00:13:54;8.50;;;3.38;;
47958;SDS011;33718;50.910;-1.514;2023-10-08T00:16:02;6.25;;;2.67;;
47958;SDS011;33718;50.910;-1.514;2023-10-08T00:18:16;3.22;;;2.08;;
47958;SDS011;33718;50.910;-1.514;2023-10-08T00:20:27;7.95;;;3.83;;
47958;SDS011;33718;50.910;-1.514;2023-10-08T00:22:45;8.35;;;3.10;;
47958;SDS011;33718;50.910;-1.514;2023-10-08T00:24:57;15.73;;;6.22;;
47958;SDS011;33718;50.910;-1.514;2023-10-08T00:27:08;14.25;;;5.38;;
47958;SDS011;33718;50.910;-1.514;2023-10-08T00:29:23;15.45;;;5.35;;
47958;SDS011;33718;50.910;-1.514;2023-10-08T00:31:34;17.88;;;5.63;;
47958;SDS011;33718;50.910;-1.514;2023-10-08T00:33:48;9.65;;;5.32;;
47958;SDS011;33718;50.910;-1.514;2023-10-08T00:35:49;13.13;;;4.90;;
47958;SDS011;33718;50.910;-1.514;2023-10-08T00:37:51;9.32;;;5.07;;
47958;SDS011;33718;50.910;-1.514;2023-10-08T00:39:53;11.57;;;4.72;;
47958;SDS011;33718;50.910;-1.514;2023-10-08T00:41:58;11.25;;;4.43;;
47958;SDS011;33718;50.910;-1.514;2023-10-08T00:44:01;12.07;;;5.00;;
47958;SDS011;33718;50.910;-1.514;2023-10-08T00:46:03;9.68;;;4.53;;
47958;SDS011;33718;50.910;-1.514;2023-10-08T00:48:06;11.50;;;4.60;;
47958;SDS011;33718;50.910;-1.514;2023-10-08T00:50:08;10.10;;;5.00;;
47958;SDS011;33718;50.910;-1.514;2023-10-08T00:52:11;10.55;;;6.82;;
47958;SDS011;33718;50.910;-1.514;2023-10-08T00:54:13;14.73;;;5.75;;
47958;SDS011;33718;50.910;-1.514;2023-10-08T00:56:19;14.60;;;5.80;;
47958;SDS011;33718;50.910;-1.514;2023-10-08T00:58:21;11.90;;;4.90;;
47958;SDS011;33718;50.910;-1.514;2023-10-08T01:00:26;11.13;;;5.28;;
47958;SDS011;33718;50.910;-1.514;2023-10-08T01:02:34;15.85;;;7.88;;
47958;SDS011;33718;50.910;-1.514;2023-10-08T01:04:50;21.05;;;8.10;;
47958;SDS011;33718;50.910;-1.514;2023-10-08T01:06:53;24.40;;;10.15;;
47958;SDS011;33718;50.910;-1.514;2023-10-08T01:09:02;16.00;;;7.85;;
47958;SDS011;33718;50.910;-1.514;2023-10-08T01:11:20;22.27;;;10.32;;
47958;SDS011;33718;50.910;-1.514;2023-10-08T01:13:42;32.45;;;13.50;;
47958;SDS011;33718;50.910;-1.514;2023-10-08T01:15:47;38.97;;;14.45;;
47958;SDS011;33718;50.910;-1.514;2023-10-08T01:17:52;45.75;;;21.05;;
47958;SDS011;33718;50.910;-1.514;2023-10-08T01:19:59;74.38;;;26.10;;
47958;SDS011;33718;50.910;-1.514;2023-10-08T01:22:27;46.40;;;18.98;;
47958;SDS011;33718;50.910;-1.514;2023-10-08T01:24:31;60.85;;;21.58;;
47958;SDS011;33718;50.910;-1.514;2023-10-08T01:26:38;64.28;;;25.67;;
47958;SDS011;33718;50.910;-1.514;2023-10-08T01:28:41;67.10;;;28.50;;
47958;SDS011;33718;50.910;-1.514;2023-10-08T01:32:48;71.82;;;27.55;;
47958;SDS011;33718;50.910;-1.514;2023-10-08T01:34:50;57.88;;;21.92;;
47958;SDS011;33718;50.910;-1.514;2023-10-08T01:36:51;62.58;;;23.33;;
47958;SDS011;33718;50.910;-1.514;2023-10-08T01:38:53;58.35;;;22.15;;
47958;SDS011;33718;50.910;-1.514;2023-10-08T01:40:56;85.88;;;32.55;;
47958;SDS011;33718;50.910;-1.514;2023-10-08T01:42:58;82.55;;;33.50;;
47958;SDS011;33718;50.910;-1.514;2023-10-08T01:45:01;81.90;;;34.40;;
47958;SDS011;33718;50.910;-1.514;2023-10-08T01:47:02;74.72;;;32.75;;
47958;SDS011;33718;50.910;-1.514;2023-10-08T01:49:06;80.85;;;33.83;;
47958;SDS011;33718;50.910;-1.514;2023-10-08T01:51:16;81.00;;;33.65;;
47958;SDS011;33718;50.910;-1.514;2023-10-08T01:53:29;90.65;;;36.92;;
47958;SDS011;33718;50.910;-1.514;2023-10-08T01:55:33;90.35;;;37.58;;
47958;SDS011;33718;50.910;-1.514;2023-10-08T01:57:46;85.53;;;35.30;;
47958;SDS011;33718;50.910;-1.514;2023-10-08T01:59:48;85.32;;;36.10;;
47958;SDS011;33718;50.910;-1.514;2023-10-08T02:01:50;95.47;;;36.33;;
47958;SDS011;33718;50.910;-1.514;2023-10-08T02:03:57;95.30;;;39.28;;
47958;SDS011;33718;50.910;-1.514;2023-10-08T02:05:58;95.90;;;39.70;;
47958;SDS011;33718;50.910;-1.514;2023-10-08T02:08:01;99.30;;;40.15;;
47958;SDS011;33718;50.910;-1.514;2023-10-08T02:10:05;93.70;;;35.70;;
47958;SDS011;33718;50.910;-1.514;2023-10-08T02:12:08;93.10;;;35.95;;
47958;SDS011;33718;50.910;-1.514;2023-10-08T02:14:10;94.97;;;38.95;;
47958;SDS011;33718;50.910;-1.514;2023-10-08T02:16:17;100.60;;;42.10;;
47958;SDS011;33718;50.910;-1.514;2023-10-08T02:18:19;95.38;;;36.97;;
47958;SDS011;33718;50.910;-1.514;2023-10-08T02:20:21;96.88;;;35.55;;
47958;SDS011;33718;50.910;-1.514;2023-10-08T02:22:23;87.97;;;33.47;;
47958;SDS011;33718;50.910;-1.514;2023-10-08T02:24:25;82.60;;;33.33;;
47958;SDS011;33718;50.910;-1.514;2023-10-08T02:26:26;89.20;;;32.65;;
47958;SDS011;33718;50.910;-1.514;2023-10-08T02:28:28;70.97;;;25.92;;
47958;SDS011;33718;50.910;-1.514;2023-10-08T02:30:30;63.05;;;24.05;;
47958;SDS011;33718;50.910;-1.514;2023-10-08T02:32:32;71.00;;;23.42;;
47958;SDS011;33718;50.910;-1.514;2023-10-08T02:34:34;69.10;;;27.40;;
47958;SDS011;33718;50.910;-1.514;2023-10-08T02:36:36;59.28;;;22.33;;
47958;SDS011;33718;50.910;-1.514;2023-10-08T02:38:38;54.15;;;23.38;;
47958;SDS011;33718;50.910;-1.514;2023-10-08T02:40:40;67.97;;;21.60;;
47958;SDS011;33718;50.910;-1.514;2023-10-08T02:42:47;53.35;;;23.27;;
47958;SDS011;33718;50.910;-1.514;2023-10-08T02:44:49;45.08;;;17.70;;
47958;SDS011;33718;50.910;-1.514;2023-10-08T02:46:52;44.83;;;18.45;;
47958;SDS011;33718;50.910;-1.514;2023-10-08T02:48:54;43.17;;;16.58;;
47958;SDS011;33718;50.910;-1.514;2023-10-08T02:50:56;41.88;;;17.13;;
47958;SDS011;33718;50.910;-1.514;2023-10-08T02:53:08;50.40;;;17.98;;
47958;SDS011;33718;50.910;-1.514;2023-10-08T02:55:13;62.85;;;19.65;;
47958;SDS011;33718;50.910;-1.514;2023-10-08T02:57:37;66.68;;;22.30;;
47958;SDS011;33718;50.910;-1.514;2023-10-08T02:59:40;82.38;;;22.75;;
47958;SDS011;33718;50.910;-1.514;2023-10-08T03:01:45;67.63;;;20.23;;
47958;SDS011;33718;50.910;-1.514;2023-10-08T03:03:49;74.40;;;22.90;;
47958;SDS011;33718;50.910;-1.514;2023-10-08T03:05:56;64.72;;;22.60;;
47958;SDS011;33718;50.910;-1.514;2023-10-08T03:07:58;70.57;;;23.08;;
47958;SDS011;33718;50.910;-1.514;2023-10-08T03:10:00;66.78;;;26.17;;
47958;SDS011;33718;50.910;-1.514;2023-10-08T03:12:05;74.05;;;29.10;;
47958;SDS011;33718;50.910;-1.514;2023-10-08T03:14:11;68.00;;;26.77;;
47958;SDS011;33718;50.910;-1.514;2023-10-08T03:16:23;71.13;;;24.17;;
47958;SDS011;33718;50.910;-1.514;2023-10-08T03:18:30;53.20;;;21.67;;
47958;SDS011;33718;50.910;-1.514;2023-10-08T03:20:39;52.42;;;19.10;;
47958;SDS011;33718;50.910;-1.514;2023-10-08T03:22:47;42.58;;;17.75;;
47958;SDS011;33718;50.910;-1.514;2023-10-08T03:24:51;50.17;;;17.45;;
47958;SDS011;33718;50.910;-1.514;2023-10-08T03:26:53;52.83;;;18.67;;
47958;SDS011;33718;50.910;-1.514;2023-10-08T03:29:02;54.88;;;19.52;;
47958;SDS011;33718;50.910;-1.514;2023-10-08T03:31:18;54.72;;;20.88;;
47958;SDS011;33718;50.910;-1.514;2023-10-08T03:33:21;52.77;;;21.37;;
47958;SDS011;33718;50.910;-1.514;2023-10-08T03:35:26;58.13;;;23.00;;
47958;SDS011;33718;50.910;-1.514;2023-10-08T03:37:39;51.42;;;20.67;;
47958;SDS011;33718;50.910;-1.514;2023-10-08T03:39:48;45.05;;;19.45;;
47958;SDS011;33718;50.910;-1.514;2023-10-08T03:41:53;51.30;;;19.25;;
47958;SDS011;33718;50.910;-1.514;2023-10-08T03:44:08;56.60;;;23.63;;
47958;SDS011;33718;50.910;-1.514;2023-10-08T03:46:19;76.00;;;27.35;;
47958;SDS011;33718;50.910;-1.514;2023-10-08T03:48:23;85.97;;;31.45;;
47958;SDS011;33718;50.910;-1.514;2023-10-08T03:50:26;79.32;;;30.15;;
47958;SDS011;33718;50.910;-1.514;2023-10-08T03:52:36;63.15;;;26.13;;
47958;SDS011;33718;50.910;-1.514;2023-10-08T03:54:45;73.75;;;27.05;;
47958;SDS011;33718;50.910;-1.514;2023-10-08T03:56:50;76.38;;;28.20;;
47958;SDS011;33718;50.910;-1.514;2023-10-08T03:58:53;72.33;;;27.37;;
47958;SDS011;33718;50.910;-1.514;2023-10-08T04:00:55;61.58;;;22.65;;
47958;SDS011;33718;50.910;-1.514;2023-10-08T04:03:10;70.75;;;23.67;;
47958;SDS011;33718;50.910;-1.514;2023-10-08T04:05:13;65.65;;;22.17;;
47958;SDS011;33718;50.910;-1.514;2023-10-08T04:07:21;60.95;;;23.15;;
47958;SDS011;33718;50.910;-1.514;2023-10-08T04:09:46;45.63;;;19.42;;
47958;SDS011;33718;50.910;-1.514;2023-10-08T04:11:48;48.42;;;17.40;;
47958;SDS011;33718;50.910;-1.514;2023-10-08T04:13:50;41.88;;;15.95;;
47958;SDS011;33718;50.910;-1.514;2023-10-08T04:15:53;48.67;;;17.90;;
47958;SDS011;33718;50.910;-1.514;2023-10-08T04:17:57;40.13;;;15.20;;
47958;SDS011;33718;50.910;-1.514;2023-10-08T04:20:07;42.95;;;15.85;;
47958;SDS011;33718;50.910;-1.514;2023-10-08T04:22:28;48.60;;;17.23;;
47958;SDS011;33718;50.910;-1.514;2023-10-08T04:24:30;48.42;;;17.90;;
47958;SDS011;33718;50.910;-1.514;2023-10-08T04:26:36;53.47;;;17.63;;
47958;SDS011;33718;50.910;-1.514;2023-10-08T04:28:43;40.70;;;16.17;;
47958;SDS011;33718;50.910;-1.514;2023-10-08T04:30:47;48.17;;;17.15;;
47958;SDS011;33718;50.910;-1.514;2023-10-08T04:32:53;41.35;;;14.43;;
47958;SDS011;33718;50.910;-1.514;2023-10-08T04:34:55;37.67;;;13.70;;
47958;SDS011;33718;50.910;-1.514;2023-10-08T04:36:58;39.65;;;14.52;;
47958;SDS011;33718;50.910;-1.514;2023-10-08T04:39:02;39.10;;;16.42;;
47958;SDS011;33718;50.910;-1.514;2023-10-08T04:41:15;49.28;;;17.98;;
47958;SDS011;33718;50.910;-1.514;2023-10-08T04:43:22;40.13;;;15.13;;
47958;SDS011;33718;50.910;-1.514;2023-10-08T04:45:27;43.53;;;17.52;;
47958;SDS011;33718;50.910;-1.514;2023-10-08T04:47:35;40.50;;;14.40;;
47958;SDS011;33718;50.910;-1.514;2023-10-08T04:49:41;43.00;;;17.48;;
47958;SDS011;33718;50.910;-1.514;2023-10-08T04:51:47;41.85;;;17.15;;
47958;SDS011;33718;50.910;-1.514;2023-10-08T04:53:50;44.03;;;17.83;;
47958;SDS011;33718;50.910;-1.514;2023-10-08T04:55:52;54.47;;;19.33;;
47958;SDS011;33718;50.910;-1.514;2023-10-08T04:57:56;42.75;;;18.88;;
47958;SDS011;33718;50.910;-1.514;2023-10-08T04:59:58;49.33;;;15.60;;
47958;SDS011;33718;50.910;-1.514;2023-10-08T05:02:04;45.83;;;17.85;;
47958;SDS011;33718;50.910;-1.514;2023-10-08T05:04:24;42.90;;;17.75;;
47958;SDS011;33718;50.910;-1.514;2023-10-08T05:06:32;42.10;;;15.90;;
47958;SDS011;33718;50.910;-1.514;2023-10-08T05:08:37;45.58;;;15.77;;
47958;SDS011;33718;50.910;-1.514;2023-10-08T05:11:00;48.17;;;15.00;;
47958;SDS011;33718;50.910;-1.514;2023-10-08T05:13:17;51.10;;;16.70;;
47958;SDS011;33718;50.910;-1.514;2023-10-08T05:15:32;40.58;;;14.82;;
47958;SDS011;33718;50.910;-1.514;2023-10-08T05:18:07;37.33;;;15.38;;
47958;SDS011;33718;50.910;-1.514;2023-10-08T05:20:25;35.33;;;13.93;;
47958;SDS011;33718;50.910;-1.514;2023-10-08T05:22:47;39.00;;;13.98;;
47958;SDS011;33718;50.910;-1.514;2023-10-08T05:24:57;27.88;;;10.55;;
47958;SDS011;33718;50.910;-1.514;2023-10-08T05:27:26;29.13;;;11.05;;
47958;SDS011;33718;50.910;-1.514;2023-10-08T05:29:39;28.33;;;10.68;;
47958;SDS011;33718;50.910;-1.514;2023-10-08T05:31:53;35.50;;;12.82;;
47958;SDS011;33718;50.910;-1.514;2023-10-08T05:34:16;28.42;;;10.65;;
47958;SDS011;33718;50.910;-1.514;2023-10-08T05:36:25;34.70;;;12.10;;
47958;SDS011;33718;50.910;-1.514;2023-10-08T05:38:37;30.48;;;12.10;;
47958;SDS011;33718;50.910;-1.514;2023-10-08T05:40:44;33.85;;;12.32;;
47958;SDS011;33718;50.910;-1.514;2023-10-08T05:43:01;32.75;;;11.88;;
47958;SDS011;33718;50.910;-1.514;2023-10-08T05:45:23;36.20;;;13.32;;
47958;SDS011;33718;50.910;-1.514;2023-10-08T05:47:36;47.22;;;17.13;;
47958;SDS011;33718;50.910;-1.514;2023-10-08T05:49:40;44.95;;;14.10;;
47958;SDS011;33718;50.910;-1.514;2023-10-08T05:51:57;30.08;;;12.65;;
47958;SDS011;33718;50.910;-1.514;2023-10-08T05:54:05;40.88;;;12.98;;
47958;SDS011;33718;50.910;-1.514;2023-10-08T05:56:26;38.15;;;15.05;;
47958;SDS011;33718;50.910;-1.514;2023-10-08T05:58:44;53.28;;;16.30;;
47958;SDS011;33718;50.910;-1.514;2023-10-08T06:01:07;49.63;;;16.80;;
47958;SDS011;33718;50.910;-1.514;2023-10-08T06:03:37;48.67;;;18.98;;
47958;SDS011;33718;50.910;-1.514;2023-10-08T06:06:18;52.20;;;17.42;;
47958;SDS011;33718;50.910;-1.514;2023-10-08T06:08:23;52.42;;;16.50;;
47958;SDS011;33718;50.910;-1.514;2023-10-08T06:10:46;86.03;;;30.05;;
47958;SDS011;33718;50.910;-1.514;2023-10-08T06:13:01;32.88;;;12.90;;
47958;SDS011;33718;50.910;-1.514;2023-10-08T06:15:09;27.65;;;10.00;;
47958;SDS011;33718;50.910;-1.514;2023-10-08T06:17:15;35.67;;;11.63;;
47958;SDS011;33718;50.910;-1.514;2023-10-08T06:19:37;55.58;;;16.60;;
47958;SDS011;33718;50.910;-1.514;2023-10-08T06:21:42;40.67;;;14.60;;
47958;SDS011;33718;50.910;-1.514;2023-10-08T06:23:46;52.28;;;19.13;;
47958;SDS011;33718;50.910;-1.514;2023-10-08T06:25:51;53.92;;;17.35;;
47958;SDS011;33718;50.910;-1.514;2023-10-08T06:28:09;65.35;;;22.67;;
47958;SDS011;33718;50.910;-1.514;2023-10-08T06:30:13;49.88;;;20.10;;
47958;SDS011;33718;50.910;-1.514;2023-10-08T06:32:19;56.30;;;17.98;;
47958;SDS011;33718;50.910;-1.514;2023-10-08T06:34:25;52.55;;;16.98;;
47958;SDS011;33718;50.910;-1.514;2023-10-08T06:36:31;47.25;;;14.35;;
47958;SDS011;33718;50.910;-1.514;2023-10-08T06:38:39;35.67;;;13.25;;
47958;SDS011;33718;50.910;-1.514;2023-10-08T06:40:44;38.50;;;11.10;;
47958;SDS011;33718;50.910;-1.514;2023-10-08T06:46:59;46.20;;;17.60;;
47958;SDS011;33718;50.910;-1.514;2023-10-08T06:49:06;53.58;;;18.90;;
47958;SDS011;33718;50.910;-1.514;2023-10-08T06:51:13;40.53;;;13.50;;
47958;SDS011;33718;50.910;-1.514;2023-10-08T06:53:15;43.80;;;13.95;;
47958;SDS011;33718;50.910;-1.514;2023-10-08T06:55:19;35.92;;;15.02;;
47958;SDS011;33718;50.910;-1.514;2023-10-08T06:57:25;50.75;;;14.48;;
47958;SDS011;33718;50.910;-1.514;2023-10-08T06:59:28;35.30;;;12.98;;
47958;SDS011;33718;50.910;-1.514;2023-10-08T07:01:33;35.67;;;13.98;;
47958;SDS011;33718;50.910;-1.514;2023-10-08T07:03:41;39.50;;;14.55;;
47958;SDS011;33718;50.910;-1.514;2023-10-08T07:07:46;37.35;;;12.27;;
47958;SDS011;33718;50.910;-1.514;2023-10-08T07:09:47;30.75;;;11.63;;
47958;SDS011;33718;50.910;-1.514;2023-10-08T07:11:52;28.00;;;12.15;;
47958;SDS011;33718;50.910;-1.514;2023-10-08T07:13:57;32.67;;;11.75;;
47958;SDS011;33718;50.910;-1.514;2023-10-08T07:15:59;27.23;;;10.00;;
47958;SDS011;33718;50.910;-1.514;2023-10-08T07:18:05;18.90;;;8.15;;
47958;SDS011;33718;50.910;-1.514;2023-10-08T07:20:11;26.23;;;10.25;;
47958;SDS011;33718;50.910;-1.514;2023-10-08T07:22:23;28.88;;;12.15;;
47958;SDS011;33718;50.910;-1.514;2023-10-08T07:24:25;31.95;;;11.68;;
47958;SDS011;33718;50.910;-1.514;2023-10-08T07:26:27;35.85;;;10.93;;
47958;SDS011;33718;50.910;-1.514;2023-10-08T07:28:38;33.95;;;11.10;;
47958;SDS011;33718;50.910;-1.514;2023-10-08T07:30:42;33.90;;;12.32;;
47958;SDS011;33718;50.910;-1.514;2023-10-08T07:32:45;26.13;;;11.73;;
47958;SDS011;33718;50.910;-1.514;2023-10-08T07:34:47;29.77;;;10.75;;
47958;SDS011;33718;50.910;-1.514;2023-10-08T07:36:49;28.77;;;11.88;;
47958;SDS011;33718;50.910;-1.514;2023-10-08T07:38:52;16.60;;;7.65;;
47958;SDS011;33718;50.910;-1.514;2023-10-08T07:40:55;11.93;;;5.43;;
47958;SDS011;33718;50.910;-1.514;2023-10-08T07:42:56;16.85;;;6.40;;
47958;SDS011;33718;50.910;-1.514;2023-10-08T07:44:58;13.38;;;5.72;;
47958;SDS011;33718;50.910;-1.514;2023-10-08T07:47:00;10.68;;;4.88;;
47958;SDS011;33718;50.910;-1.514;2023-10-08T07:49:01;8.38;;;3.55;;
47958;SDS011;33718;50.910;-1.514;2023-10-08T07:53:08;8.32;;;4.00;;
47958;SDS011;33718;50.910;-1.514;2023-10-08T07:55:10;9.95;;;4.68;;
47958;SDS011;33718;50.910;-1.514;2023-10-08T07:57:19;9.63;;;4.75;;
47958;SDS011;33718;50.910;-1.514;2023-10-08T07:59:27;10.15;;;4.80;;
47958;SDS011;33718;50.910;-1.514;2023-10-08T08:01:29;10.90;;;5.60;;
47958;SDS011;33718;50.910;-1.514;2023-10-08T08:03:31;8.30;;;4.35;;
47958;SDS011;33718;50.910;-1.514;2023-10-08T08:05:33;8.77;;;5.28;;
47958;SDS011;33718;50.910;-1.514;2023-10-08T08:07:35;13.68;;;6.38;;
47958;SDS011;33718;50.910;-1.514;2023-10-08T08:09:38;11.43;;;5.72;;
47958;SDS011;33718;50.910;-1.514;2023-10-08T08:11:40;12.52;;;4.85;;
47958;SDS011;33718;50.910;-1.514;2023-10-08T08:13:41;12.50;;;5.82;;
47958;SDS011;33718;50.910;-1.514;2023-10-08T08:15:44;8.30;;;4.60;;
47958;SDS011;33718;50.910;-1.514;2023-10-08T08:17:53;12.40;;;5.18;;
47958;SDS011;33718;50.910;-1.514;2023-10-08T08:19:55;15.85;;;7.03;;
47958;SDS011;33718;50.910;-1.514;2023-10-08T08:21:57;12.80;;;7.70;;
47958;SDS011;33718;50.910;-1.514;2023-10-08T08:24:04;25.77;;;10.32;;
47958;SDS011;33718;50.910;-1.514;2023-10-08T08:26:06;18.67;;;10.05;;
47958;SDS011;33718;50.910;-1.514;2023-10-08T08:28:13;22.55;;;10.77;;
47958;SDS011;33718;50.910;-1.514;2023-10-08T08:30:22;17.65;;;9.48;;
47958;SDS011;33718;50.910;-1.514;2023-10-08T08:32:28;18.95;;;9.90;;
47958;SDS011;33718;50.910;-1.514;2023-10-08T08:34:30;19.20;;;10.10;;
47958;SDS011;33718;50.910;-1.514;2023-10-08T08:36:32;16.55;;;9.35;;
47958;SDS011;33718;50.910;-1.514;2023-10-08T08:38:34;16.35;;;7.80;;
47958;SDS011;33718;50.910;-1.514;2023-10-08T08:40:36;14.98;;;6.95;;
47958;SDS011;33718;50.910;-1.514;2023-10-08T08:42:38;14.75;;;7.75;;
47958;SDS011;33718;50.910;-1.514;2023-10-08T08:44:41;15.35;;;7.30;;
47958;SDS011;33718;50.910;-1.514;2023-10-08T08:46:49;15.27;;;7.22;;
47958;SDS011;33718;50.910;-1.514;2023-10-08T08:48:50;13.05;;;7.05;;
47958;SDS011;33718;50.910;-1.514;2023-10-08T08:50:54;11.55;;;7.18;;
47958;SDS011;33718;50.910;-1.514;2023-10-08T08:52:56;13.93;;;6.70;;
47958;SDS011;33718;50.910;-1.514;2023-10-08T08:55:00;12.60;;;7.07;;
47958;SDS011;33718;50.910;-1.514;2023-10-08T08:57:08;14.18;;;7.07;;
47958;SDS011;33718;50.910;-1.514;2023-10-08T08:59:15;14.30;;;6.82;;
47958;SDS011;33718;50.910;-1.514;2023-10-08T09:01:18;13.90;;;6.63;;
47958;SDS011;33718;50.910;-1.514;2023-10-08T09:03:20;14.75;;;7.72;;
47958;SDS011;33718;50.910;-1.514;2023-10-08T09:05:22;13.30;;;7.10;;
47958;SDS011;33718;50.910;-1.514;2023-10-08T09:07:29;17.42;;;6.95;;
47958;SDS011;33718;50.910;-1.514;2023-10-08T09:09:34;17.50;;;7.18;;
47958;SDS011;33718;50.910;-1.514;2023-10-08T09:11:50;16.40;;;8.18;;
47958;SDS011;33718;50.910;-1.514;2023-10-08T09:14:03;16.85;;;8.73;;
47958;SDS011;33718;50.910;-1.514;2023-10-08T09:18:17;15.82;;;6.35;;
47958;SDS011;33718;50.910;-1.514;2023-10-08T09:20:22;12.95;;;7.18;;
47958;SDS011;33718;50.910;-1.514;2023-10-08T09:22:25;11.18;;;7.10;;
47958;SDS011;33718;50.910;-1.514;2023-10-08T09:24:31;15.95;;;7.10;;
47958;SDS011;33718;50.910;-1.514;2023-10-08T09:26:36;11.88;;;7.05;;
47958;SDS011;33718;50.910;-1.514;2023-10-08T09:28:45;11.25;;;6.90;;
47958;SDS011;33718;50.910;-1.514;2023-10-08T09:30:50;13.43;;;7.28;;
47958;SDS011;33718;50.910;-1.514;2023-10-08T09:32:56;12.18;;;6.38;;
47958;SDS011;33718;50.910;-1.514;2023-10-08T09:35:00;14.13;;;6.15;;
47958;SDS011;33718;50.910;-1.514;2023-10-08T09:37:04;20.15;;;6.68;;
47958;SDS011;33718;50.910;-1.514;2023-10-08T09:39:07;11.63;;;5.82;;
47958;SDS011;33718;50.910;-1.514;2023-10-08T09:41:16;11.35;;;6.32;;
47958;SDS011;33718;50.910;-1.514;2023-10-08T09:43:22;9.70;;;4.80;;
47958;SDS011;33718;50.910;-1.514;2023-10-08T09:45:27;6.43;;;4.32;;
47958;SDS011;33718;50.910;-1.514;2023-10-08T09:47:32;15.52;;;4.82;;
47958;SDS011;33718;50.910;-1.514;2023-10-08T09:49:46;8.07;;;3.75;;
47958;SDS011;33718;50.910;-1.514;2023-10-08T09:51:54;5.90;;;3.47;;
47958;SDS011;33718;50.910;-1.514;2023-10-08T09:56:28;6.38;;;3.30;;
47958;SDS011;33718;50.910;-1.514;2023-10-08T09:58:30;11.13;;;3.30;;
47958;SDS011;33718;50.910;-1.514;2023-10-08T10:00:33;6.87;;;3.87;;
47958;SDS011;33718;50.910;-1.514;2023-10-08T10:02:34;5.57;;;3.38;;
47958;SDS011;33718;50.910;-1.514;2023-10-08T10:04:41;7.78;;;3.50;;
47958;SDS011;33718;50.910;-1.514;2023-10-08T10:06:44;8.48;;;3.60;;
47958;SDS011;33718;50.910;-1.514;2023-10-08T10:08:47;8.13;;;3.67;;
47958;SDS011;33718;50.910;-1.514;2023-10-08T10:10:49;7.20;;;3.55;;
47958;SDS011;33718;50.910;-1.514;2023-10-08T10:12:59;9.05;;;3.55;;
47958;SDS011;33718;50.910;-1.514;2023-10-08T10:15:01;7.00;;;3.63;;
47958;SDS011;33718;50.910;-1.514;2023-10-08T10:17:17;8.38;;;3.05;;
47958;SDS011;33718;50.910;-1.514;2023-10-08T10:19:42;6.03;;;3.72;;
47958;SDS011;33718;50.910;-1.514;2023-10-08T10:21:47;7.88;;;3.88;;
47958;SDS011;33718;50.910;-1.514;2023-10-08T10:23:51;5.00;;;2.67;;
47958;SDS011;33718;50.910;-1.514;2023-10-08T10:25:56;7.45;;;3.80;;
47958;SDS011;33718;50.910;-1.514;2023-10-08T10:30:02;11.10;;;5.15;;
47958;SDS011;33718;50.910;-1.514;2023-10-08T10:32:10;8.15;;;4.82;;
47958;SDS011;33718;50.910;-1.514;2023-10-08T10:34:13;8.88;;;4.15;;
47958;SDS011;33718;50.910;-1.514;2023-10-08T10:36:17;6.68;;;4.18;;
47958;SDS011;33718;50.910;-1.514;2023-10-08T10:38:20;6.17;;;3.83;;
47958;SDS011;33718;50.910;-1.514;2023-10-08T10:40:24;5.72;;;3.35;;
47958;SDS011;33718;50.910;-1.514;2023-10-08T10:42:47;4.88;;;2.72;;
47958;SDS011;33718;50.910;-1.514;2023-10-08T10:44:56;6.93;;;3.60;;
47958;SDS011;33718;50.910;-1.514;2023-10-08T10:47:00;4.50;;;3.28;;
47958;SDS011;33718;50.910;-1.514;2023-10-08T10:49:17;7.78;;;2.80;;
47958;SDS011;33718;50.910;-1.514;2023-10-08T10:51:20;5.88;;;2.63;;
47958;SDS011;33718;50.910;-1.514;2023-10-08T10:53:21;6.95;;;3.53;;
47958;SDS011;33718;50.910;-1.514;2023-10-08T10:55:24;5.75;;;3.22;;
47958;SDS011;33718;50.910;-1.514;2023-10-08T10:57:33;5.30;;;3.53;;
47958;SDS011;33718;50.910;-1.514;2023-10-08T10:59:43;6.22;;;3.08;;
47958;SDS011;33718;50.910;-1.514;2023-10-08T11:01:54;7.97;;;3.60;;
47958;SDS011;33718;50.910;-1.514;2023-10-08T11:06:17;7.45;;;3.50;;
47958;SDS011;33718;50.910;-1.514;2023-10-08T11:08:23;6.95;;;3.65;;
47958;SDS011;33718;50.910;-1.514;2023-10-08T11:10:26;6.50;;;3.10;;
47958;SDS011;33718;50.910;-1.514;2023-10-08T11:12:29;7.22;;;3.38;;
47958;SDS011;33718;50.910;-1.514;2023-10-08T11:14:46;3.78;;;2.30;;
47958;SDS011;33718;50.910;-1.514;2023-10-08T11:16:47;6.35;;;2.65;;
47958;SDS011;33718;50.910;-1.514;2023-10-08T11:18:49;5.43;;;3.00;;
47958;SDS011;33718;50.910;-1.514;2023-10-08T11:20:52;5.22;;;2.20;;
47958;SDS011;33718;50.910;-1.514;2023-10-08T11:23:35;3.97;;;2.40;;
47958;SDS011;33718;50.910;-1.514;2023-10-08T11:25:37;6.10;;;3.58;;
47958;SDS011;33718;50.910;-1.514;2023-10-08T11:27:41;6.97;;;3.67;;
47958;SDS011;33718;50.910;-1.514;2023-10-08T11:29:47;6.43;;;3.63;;
47958;SDS011;33718;50.910;-1.514;2023-10-08T11:32:00;4.68;;;1.80;;
47958;SDS011;33718;50.910;-1.514;2023-10-08T11:36:09;9.95;;;2.33;;
47958;SDS011;33718;50.910;-1.514;2023-10-08T11:38:20;4.68;;;2.50;;
47958;SDS011;33718;50.910;-1.514;2023-10-08T11:40:24;4.65;;;1.83;;
47958;SDS011;33718;50.910;-1.514;2023-10-08T11:42:50;2.80;;;2.05;;
47958;SDS011;33718;50.910;-1.514;2023-10-08T11:44:59;3.88;;;2.10;;
47958;SDS011;33718;50.910;-1.514;2023-10-08T11:47:04;4.38;;;1.85;;
47958;SDS011;33718;50.910;-1.514;2023-10-08T11:49:24;4.30;;;1.90;;
47958;SDS011;33718;50.910;-1.514;2023-10-08T11:51:27;4.47;;;1.53;;
47958;SDS011;33718;50.910;-1.514;2023-10-08T11:55:36;4.20;;;1.73;;
47958;SDS011;33718;50.910;-1.514;2023-10-08T11:57:40;6.00;;;1.80;;
47958;SDS011;33718;50.910;-1.514;2023-10-08T11:59:47;4.35;;;1.73;;
47958;SDS011;33718;50.910;-1.514;2023-10-08T12:01:48;5.13;;;1.83;;
47958;SDS011;33718;50.910;-1.514;2023-10-08T12:03:50;4.57;;;1.88;;
47958;SDS011;33718;50.910;-1.514;2023-10-08T12:05:52;4.53;;;1.90;;
47958;SDS011;33718;50.910;-1.514;2023-10-08T12:08:01;2.38;;;1.52;;
47958;SDS011;33718;50.910;-1.514;2023-10-08T12:10:04;2.15;;;1.10;;
47958;SDS011;33718;50.910;-1.514;2023-10-08T12:12:06;1.83;;;1.52;;
47958;SDS011;33718;50.910;-1.514;2023-10-08T12:14:12;2.97;;;1.65;;
47958;SDS011;33718;50.910;-1.514;2023-10-08T12:16:19;4.07;;;1.50;;
47958;SDS011;33718;50.910;-1.514;2023-10-08T12:18:30;3.20;;;2.05;;
47958;SDS011;33718;50.910;-1.514;2023-10-08T12:20:37;4.85;;;1.60;;
47958;SDS011;33718;50.910;-1.514;2023-10-08T12:22:44;2.65;;;1.45;;
47958;SDS011;33718;50.910;-1.514;2023-10-08T12:24:50;3.55;;;1.70;;
47958;SDS011;33718;50.910;-1.514;2023-10-08T12:26:52;3.53;;;1.48;;
47958;SDS011;33718;50.910;-1.514;2023-10-08T12:28:54;4.88;;;2.10;;
47958;SDS011;33718;50.910;-1.514;2023-10-08T12:31:00;2.92;;;1.67;;
47958;SDS011;33718;50.910;-1.514;2023-10-08T12:33:04;7.00;;;2.03;;
47958;SDS011;33718;50.910;-1.514;2023-10-08T12:35:14;3.55;;;1.70;;
47958;SDS011;33718;50.910;-1.514;2023-10-08T12:37:16;4.45;;;2.05;;
47958;SDS011;33718;50.910;-1.514;2023-10-08T12:39:23;2.38;;;1.83;;
47958;SDS011;33718;50.910;-1.514;2023-10-08T12:41:33;6.82;;;2.78;;
47958;SDS011;33718;50.910;-1.514;2023-10-08T12:43:43;4.45;;;1.90;;